sensor_id;sensor_type;location;lat;lon;timestamp;temperature;humidity
34406;DHT22;20658;45.630;8.886;2023-05-19T00:01:24;15.50;90.40
34406;DHT22;20658;45.630;8.886;2023-05-19T00:03:59;15.50;91.30
34406;DHT22;20658;45.630;8.886;2023-05-19T00:06:30;15.50;92.20
34406;DHT22;20658;45.630;8.886;2023-05-19T00:09:01;15.40;92.50
34406;DHT22;20658;45.630;8.886;2023-05-19T00:11:38;15.40;93.30
34406;DHT22;20658;45.630;8.886;2023-05-19T00:14:08;15.30;94.00
34406;DHT22;20658;45.630;8.886;2023-05-19T00:16:39;15.30;94.60
34406;DHT22;20658;45.630;8.886;2023-05-19T00:19:13;15.20;95.00
34406;DHT22;20658;45.630;8.886;2023-05-19T00:21:47;15.20;95.40
34406;DHT22;20658;45.630;8.886;2023-05-19T00:24:21;15.10;96.00
34406;DHT22;20658;45.630;8.886;2023-05-19T00:26:54;15.10;96.60
34406;DHT22;20658;45.630;8.886;2023-05-19T00:29:30;15.10;96.80
34406;DHT22;20658;45.630;8.886;2023-05-19T00:32:05;15.10;97.00
34406;DHT22;20658;45.630;8.886;2023-05-19T00:34:38;15.00;97.00
34406;DHT22;20658;45.630;8.886;2023-05-19T00:37:12;15.00;97.30
34406;DHT22;20658;45.630;8.886;2023-05-19T00:39:45;15.00;97.40
34406;DHT22;20658;45.630;8.886;2023-05-19T00:42:13;15.00;97.60
34406;DHT22;20658;45.630;8.886;2023-05-19T00:44:47;14.90;97.70
34406;DHT22;20658;45.630;8.886;2023-05-19T00:47:22;14.90;97.80
34406;DHT22;20658;45.630;8.886;2023-05-19T00:49:55;14.90;97.90
34406;DHT22;20658;45.630;8.886;2023-05-19T00:52:29;14.90;97.80
34406;DHT22;20658;45.630;8.886;2023-05-19T00:55:03;14.90;98.40
34406;DHT22;20658;45.630;8.886;2023-05-19T00:57:37;14.90;98.70
34406;DHT22;20658;45.630;8.886;2023-05-19T01:00:13;14.90;99.10
34406;DHT22;20658;45.630;8.886;2023-05-19T01:02:49;14.80;99.40
34406;DHT22;20658;45.630;8.886;2023-05-19T01:05:23;14.80;99.50
34406;DHT22;20658;45.630;8.886;2023-05-19T01:07:56;14.70;99.90
34406;DHT22;20658;45.630;8.886;2023-05-19T01:10:29;14.70;99.80
34406;DHT22;20658;45.630;8.886;2023-05-19T01:13:04;14.70;99.90
34406;DHT22;20658;45.630;8.886;2023-05-19T01:15:45;14.70;99.90
34406;DHT22;20658;45.630;8.886;2023-05-19T01:18:31;14.70;99.90
34406;DHT22;20658;45.630;8.886;2023-05-19T01:21:47;14.70;99.90
34406;DHT22;20658;45.630;8.886;2023-05-19T01:31:20;14.60;99.90
34406;DHT22;20658;45.630;8.886;2023-05-19T01:33:52;14.60;99.90
34406;DHT22;20658;45.630;8.886;2023-05-19T01:36:27;14.60;99.90
34406;DHT22;20658;45.630;8.886;2023-05-19T01:39:02;14.50;99.90
34406;DHT22;20658;45.630;8.886;2023-05-19T01:41:31;14.50;99.90
34406;DHT22;20658;45.630;8.886;2023-05-19T01:44:00;14.60;99.90
34406;DHT22;20658;45.630;8.886;2023-05-19T01:46:36;14.60;99.90
34406;DHT22;20658;45.630;8.886;2023-05-19T01:49:12;14.50;99.90
34406;DHT22;20658;45.630;8.886;2023-05-19T01:51:46;14.50;99.90
34406;DHT22;20658;45.630;8.886;2023-05-19T01:54:21;14.50;99.90
34406;DHT22;20658;45.630;8.886;2023-05-19T01:56:59;14.50;99.90
34406;DHT22;20658;45.630;8.886;2023-05-19T01:59:44;14.50;99.90
34406;DHT22;20658;45.630;8.886;2023-05-19T02:02:33;14.50;99.90
34406;DHT22;20658;45.630;8.886;2023-05-19T02:05:16;14.50;99.90
34406;DHT22;20658;45.630;8.886;2023-05-19T02:08:00;14.50;99.90
34406;DHT22;20658;45.630;8.886;2023-05-19T02:10:39;14.50;99.90
34406;DHT22;20658;45.630;8.886;2023-05-19T02:13:11;14.40;99.90
34406;DHT22;20658;45.630;8.886;2023-05-19T02:15:47;14.40;99.90
34406;DHT22;20658;45.630;8.886;2023-05-19T02:18:23;14.40;99.90
34406;DHT22;20658;45.630;8.886;2023-05-19T02:20:56;14.40;99.90
34406;DHT22;20658;45.630;8.886;2023-05-19T02:23:30;14.30;99.90
34406;DHT22;20658;45.630;8.886;2023-05-19T02:26:04;14.30;99.90
34406;DHT22;20658;45.630;8.886;2023-05-19T02:28:39;14.30;99.90
34406;DHT22;20658;45.630;8.886;2023-05-19T02:31:12;14.20;99.90
34406;DHT22;20658;45.630;8.886;2023-05-19T02:33:47;14.20;99.90
34406;DHT22;20658;45.630;8.886;2023-05-19T02:36:21;14.20;99.90
34406;DHT22;20658;45.630;8.886;2023-05-19T02:38:54;14.20;99.90
34406;DHT22;20658;45.630;8.886;2023-05-19T02:41:28;14.10;99.90
34406;DHT22;20658;45.630;8.886;2023-05-19T02:44:02;14.10;99.90
34406;DHT22;20658;45.630;8.886;2023-05-19T02:46:36;14.10;99.90
34406;DHT22;20658;45.630;8.886;2023-05-19T02:49:11;14.10;99.90
34406;DHT22;20658;45.630;8.886;2023-05-19T02:51:44;14.00;99.90
34406;DHT22;20658;45.630;8.886;2023-05-19T02:54:18;14.00;99.90
34406;DHT22;20658;45.630;8.886;2023-05-19T02:56:46;14.10;99.90
34406;DHT22;20658;45.630;8.886;2023-05-19T02:59:20;14.00;99.90
34406;DHT22;20658;45.630;8.886;2023-05-19T03:01:49;14.00;99.90
34406;DHT22;20658;45.630;8.886;2023-05-19T03:04:24;14.00;99.90
34406;DHT22;20658;45.630;8.886;2023-05-19T03:06:58;13.90;99.90
34406;DHT22;20658;45.630;8.886;2023-05-19T03:09:33;14.00;99.90
34406;DHT22;20658;45.630;8.886;2023-05-19T03:12:01;13.90;99.90
34406;DHT22;20658;45.630;8.886;2023-05-19T03:14:37;13.90;99.90
34406;DHT22;20658;45.630;8.886;2023-05-19T03:17:11;13.90;99.90
34406;DHT22;20658;45.630;8.886;2023-05-19T03:19:46;13.90;99.90
34406;DHT22;20658;45.630;8.886;2023-05-19T03:22:20;13.90;99.90
34406;DHT22;20658;45.630;8.886;2023-05-19T03:24:53;13.90;99.90
34406;DHT22;20658;45.630;8.886;2023-05-19T03:27:27;13.80;99.90
34406;DHT22;20658;45.630;8.886;2023-05-19T03:30:00;13.80;99.90
34406;DHT22;20658;45.630;8.886;2023-05-19T03:32:43;13.80;99.90
34406;DHT22;20658;45.630;8.886;2023-05-19T03:35:19;13.80;99.90
34406;DHT22;20658;45.630;8.886;2023-05-19T03:37:53;13.70;99.90
34406;DHT22;20658;45.630;8.886;2023-05-19T03:40:26;13.80;99.90
34406;DHT22;20658;45.630;8.886;2023-05-19T03:43:01;13.70;99.90
34406;DHT22;20658;45.630;8.886;2023-05-19T03:45:42;13.70;99.90
34406;DHT22;20658;45.630;8.886;2023-05-19T03:48:30;13.70;99.90
34406;DHT22;20658;45.630;8.886;2023-05-19T03:51:24;13.70;99.90
34406;DHT22;20658;45.630;8.886;2023-05-19T03:53:57;13.70;99.90
34406;DHT22;20658;45.630;8.886;2023-05-19T03:56:30;13.70;99.90
34406;DHT22;20658;45.630;8.886;2023-05-19T03:58:59;13.70;99.90
34406;DHT22;20658;45.630;8.886;2023-05-19T04:01:32;13.60;99.90
34406;DHT22;20658;45.630;8.886;2023-05-19T04:04:01;13.70;99.90
34406;DHT22;20658;45.630;8.886;2023-05-19T04:06:36;13.70;99.90
34406;DHT22;20658;45.630;8.886;2023-05-19T04:09:10;13.60;99.90
34406;DHT22;20658;45.630;8.886;2023-05-19T04:11:45;13.60;99.90
34406;DHT22;20658;45.630;8.886;2023-05-19T04:14:18;13.60;99.90
34406;DHT22;20658;45.630;8.886;2023-05-19T04:16:47;13.60;99.90
34406;DHT22;20658;45.630;8.886;2023-05-19T04:19:15;13.60;99.90
34406;DHT22;20658;45.630;8.886;2023-05-19T04:21:45;13.60;99.90
34406;DHT22;20658;45.630;8.886;2023-05-19T04:24:18;13.50;99.90
34406;DHT22;20658;45.630;8.886;2023-05-19T04:26:48;13.50;99.90
34406;DHT22;20658;45.630;8.886;2023-05-19T04:29:21;13.60;99.90
34406;DHT22;20658;45.630;8.886;2023-05-19T04:31:55;13.60;99.90
34406;DHT22;20658;45.630;8.886;2023-05-19T04:34:29;13.60;99.90
34406;DHT22;20658;45.630;8.886;2023-05-19T04:37:04;13.60;99.90
34406;DHT22;20658;45.630;8.886;2023-05-19T04:39:38;13.50;99.90
34406;DHT22;20658;45.630;8.886;2023-05-19T04:42:14;13.50;99.90
34406;DHT22;20658;45.630;8.886;2023-05-19T04:44:50;13.60;99.90
34406;DHT22;20658;45.630;8.886;2023-05-19T04:47:20;13.60;99.90
34406;DHT22;20658;45.630;8.886;2023-05-19T04:49:58;13.60;99.90
34406;DHT22;20658;45.630;8.886;2023-05-19T04:52:34;13.60;99.90
34406;DHT22;20658;45.630;8.886;2023-05-19T04:55:05;13.60;99.90
34406;DHT22;20658;45.630;8.886;2023-05-19T04:57:40;13.70;99.90
34406;DHT22;20658;45.630;8.886;2023-05-19T05:00:09;13.70;99.90
34406;DHT22;20658;45.630;8.886;2023-05-19T05:02:52;13.70;99.90
34406;DHT22;20658;45.630;8.886;2023-05-19T05:05:29;13.70;99.90
34406;DHT22;20658;45.630;8.886;2023-05-19T05:08:04;13.70;99.90
34406;DHT22;20658;45.630;8.886;2023-05-19T05:10:41;13.80;99.90
34406;DHT22;20658;45.630;8.886;2023-05-19T05:13:15;13.80;99.90
34406;DHT22;20658;45.630;8.886;2023-05-19T05:15:50;13.80;99.90
34406;DHT22;20658;45.630;8.886;2023-05-19T05:18:25;13.80;99.90
34406;DHT22;20658;45.630;8.886;2023-05-19T05:21:00;13.80;99.90
34406;DHT22;20658;45.630;8.886;2023-05-19T05:23:30;13.90;99.90
34406;DHT22;20658;45.630;8.886;2023-05-19T05:26:12;13.80;99.90
34406;DHT22;20658;45.630;8.886;2023-05-19T05:28:45;13.90;99.90
34406;DHT22;20658;45.630;8.886;2023-05-19T05:31:19;13.90;99.90
34406;DHT22;20658;45.630;8.886;2023-05-19T05:33:53;13.90;99.90
34406;DHT22;20658;45.630;8.886;2023-05-19T05:36:29;13.90;99.90
34406;DHT22;20658;45.630;8.886;2023-05-19T05:39:04;13.90;99.90
34406;DHT22;20658;45.630;8.886;2023-05-19T05:41:39;13.90;99.90
34406;DHT22;20658;45.630;8.886;2023-05-19T05:44:13;13.90;99.90
34406;DHT22;20658;45.630;8.886;2023-05-19T05:46:44;13.90;99.90
34406;DHT22;20658;45.630;8.886;2023-05-19T05:49:18;13.90;99.90
34406;DHT22;20658;45.630;8.886;2023-05-19T05:51:53;14.00;99.90
34406;DHT22;20658;45.630;8.886;2023-05-19T05:54:29;14.00;99.90
34406;DHT22;20658;45.630;8.886;2023-05-19T05:57:04;14.10;99.90
34406;DHT22;20658;45.630;8.886;2023-05-19T05:59:38;14.10;99.90
34406;DHT22;20658;45.630;8.886;2023-05-19T06:02:12;14.10;99.90
34406;DHT22;20658;45.630;8.886;2023-05-19T06:04:46;14.20;99.90
34406;DHT22;20658;45.630;8.886;2023-05-19T06:07:20;14.30;99.90
34406;DHT22;20658;45.630;8.886;2023-05-19T06:09:50;14.30;99.90
34406;DHT22;20658;45.630;8.886;2023-05-19T06:12:24;14.30;99.90
34406;DHT22;20658;45.630;8.886;2023-05-19T06:14:53;14.40;99.90
34406;DHT22;20658;45.630;8.886;2023-05-19T06:17:36;14.40;99.90
34406;DHT22;20658;45.630;8.886;2023-05-19T06:20:11;14.40;99.90
34406;DHT22;20658;45.630;8.886;2023-05-19T06:22:45;14.40;99.90
34406;DHT22;20658;45.630;8.886;2023-05-19T06:25:22;14.40;99.90
34406;DHT22;20658;45.630;8.886;2023-05-19T06:27:57;14.40;99.90
34406;DHT22;20658;45.630;8.886;2023-05-19T06:30:30;14.40;99.90
34406;DHT22;20658;45.630;8.886;2023-05-19T06:33:29;14.40;99.90
34406;DHT22;20658;45.630;8.886;2023-05-19T06:35:58;14.50;99.90
34406;DHT22;20658;45.630;8.886;2023-05-19T06:38:33;14.50;99.90
34406;DHT22;20658;45.630;8.886;2023-05-19T06:41:08;14.70;99.90
34406;DHT22;20658;45.630;8.886;2023-05-19T06:43:42;14.60;99.90
34406;DHT22;20658;45.630;8.886;2023-05-19T06:46:13;14.60;99.90
34406;DHT22;20658;45.630;8.886;2023-05-19T06:48:48;14.60;99.90
34406;DHT22;20658;45.630;8.886;2023-05-19T06:51:23;14.70;99.90
34406;DHT22;20658;45.630;8.886;2023-05-19T06:53:55;14.80;99.90
34406;DHT22;20658;45.630;8.886;2023-05-19T06:56:30;14.90;99.90
34406;DHT22;20658;45.630;8.886;2023-05-19T06:59:03;15.00;99.90
34406;DHT22;20658;45.630;8.886;2023-05-19T07:01:37;15.00;99.90
34406;DHT22;20658;45.630;8.886;2023-05-19T07:04:06;15.00;99.90
34406;DHT22;20658;45.630;8.886;2023-05-19T07:06:40;15.10;99.90
34406;DHT22;20658;45.630;8.886;2023-05-19T07:09:13;15.20;99.90
34406;DHT22;20658;45.630;8.886;2023-05-19T07:11:48;15.30;99.90
34406;DHT22;20658;45.630;8.886;2023-05-19T07:14:16;15.40;99.90
34406;DHT22;20658;45.630;8.886;2023-05-19T07:16:46;15.40;99.90
34406;DHT22;20658;45.630;8.886;2023-05-19T07:19:20;15.50;99.90
34406;DHT22;20658;45.630;8.886;2023-05-19T07:21:54;15.60;99.90
34406;DHT22;20658;45.630;8.886;2023-05-19T07:24:30;15.60;99.90
34406;DHT22;20658;45.630;8.886;2023-05-19T07:27:05;15.50;99.90
34406;DHT22;20658;45.630;8.886;2023-05-19T07:29:33;15.50;99.90
34406;DHT22;20658;45.630;8.886;2023-05-19T07:32:07;15.50;99.90
34406;DHT22;20658;45.630;8.886;2023-05-19T07:34:40;15.40;99.90
34406;DHT22;20658;45.630;8.886;2023-05-19T07:37:14;15.50;99.90
34406;DHT22;20658;45.630;8.886;2023-05-19T07:39:47;15.60;99.90
34406;DHT22;20658;45.630;8.886;2023-05-19T07:42:22;15.70;99.90
34406;DHT22;20658;45.630;8.886;2023-05-19T07:44:56;15.70;99.90
34406;DHT22;20658;45.630;8.886;2023-05-19T07:47:30;15.80;99.90
34406;DHT22;20658;45.630;8.886;2023-05-19T07:49:58;15.80;99.90
34406;DHT22;20658;45.630;8.886;2023-05-19T07:52:32;16.20;99.90
34406;DHT22;20658;45.630;8.886;2023-05-19T07:55:06;16.00;99.70
34406;DHT22;20658;45.630;8.886;2023-05-19T07:57:40;16.00;99.10
34406;DHT22;20658;45.630;8.886;2023-05-19T08:00:15;15.90;97.80
34406;DHT22;20658;45.630;8.886;2023-05-19T08:02:49;15.90;97.90
34406;DHT22;20658;45.630;8.886;2023-05-19T08:05:23;16.00;97.30
34406;DHT22;20658;45.630;8.886;2023-05-19T08:07:57;16.00;96.50
34406;DHT22;20658;45.630;8.886;2023-05-19T08:10:30;16.00;97.10
34406;DHT22;20658;45.630;8.886;2023-05-19T08:13:05;16.00;96.50
34406;DHT22;20658;45.630;8.886;2023-05-19T08:15:39;16.10;96.70
34406;DHT22;20658;45.630;8.886;2023-05-19T08:18:13;16.00;97.00
34406;DHT22;20658;45.630;8.886;2023-05-19T08:20:46;16.10;97.20
34406;DHT22;20658;45.630;8.886;2023-05-19T08:23:21;16.10;94.40
34406;DHT22;20658;45.630;8.886;2023-05-19T08:25:54;16.00;95.40
34406;DHT22;20658;45.630;8.886;2023-05-19T08:28:29;16.10;94.10
34406;DHT22;20658;45.630;8.886;2023-05-19T08:31:02;16.10;94.60
34406;DHT22;20658;45.630;8.886;2023-05-19T08:33:36;16.30;93.80
34406;DHT22;20658;45.630;8.886;2023-05-19T08:36:10;16.40;92.50
34406;DHT22;20658;45.630;8.886;2023-05-19T08:38:43;16.40;91.50
34406;DHT22;20658;45.630;8.886;2023-05-19T08:41:17;16.40;93.50
34406;DHT22;20658;45.630;8.886;2023-05-19T08:43:52;16.30;94.70
34406;DHT22;20658;45.630;8.886;2023-05-19T08:46:25;16.20;95.00
34406;DHT22;20658;45.630;8.886;2023-05-19T08:49:04;16.10;95.70
34406;DHT22;20658;45.630;8.886;2023-05-19T08:51:49;16.00;95.60
34406;DHT22;20658;45.630;8.886;2023-05-19T08:54:31;16.00;96.70
34406;DHT22;20658;45.630;8.886;2023-05-19T08:57:11;16.00;96.50
34406;DHT22;20658;45.630;8.886;2023-05-19T08:59:46;16.30;95.60
34406;DHT22;20658;45.630;8.886;2023-05-19T09:02:21;16.10;94.40
34406;DHT22;20658;45.630;8.886;2023-05-19T09:04:55;16.10;95.10
34406;DHT22;20658;45.630;8.886;2023-05-19T09:07:30;16.20;93.30
34406;DHT22;20658;45.630;8.886;2023-05-19T09:10:06;16.40;94.20
34406;DHT22;20658;45.630;8.886;2023-05-19T09:12:40;16.50;94.20
34406;DHT22;20658;45.630;8.886;2023-05-19T09:15:18;16.70;94.80
34406;DHT22;20658;45.630;8.886;2023-05-19T09:17:46;16.80;92.40
34406;DHT22;20658;45.630;8.886;2023-05-19T09:20:20;17.00;93.40
34406;DHT22;20658;45.630;8.886;2023-05-19T09:22:53;17.20;94.10
34406;DHT22;20658;45.630;8.886;2023-05-19T09:25:28;17.20;93.10
34406;DHT22;20658;45.630;8.886;2023-05-19T09:28:02;17.00;94.20
34406;DHT22;20658;45.630;8.886;2023-05-19T09:30:38;16.90;95.60
34406;DHT22;20658;45.630;8.886;2023-05-19T09:33:16;16.90;96.30
34406;DHT22;20658;45.630;8.886;2023-05-19T09:35:53;16.70;95.30
34406;DHT22;20658;45.630;8.886;2023-05-19T09:38:29;16.60;95.60
34406;DHT22;20658;45.630;8.886;2023-05-19T09:41:04;16.50;94.30
34406;DHT22;20658;45.630;8.886;2023-05-19T09:43:39;16.50;94.20
34406;DHT22;20658;45.630;8.886;2023-05-19T09:46:14;16.50;94.20
34406;DHT22;20658;45.630;8.886;2023-05-19T09:48:42;16.50;92.20
34406;DHT22;20658;45.630;8.886;2023-05-19T09:51:16;16.60;93.90
34406;DHT22;20658;45.630;8.886;2023-05-19T09:53:49;16.50;95.10
34406;DHT22;20658;45.630;8.886;2023-05-19T09:56:24;16.50;95.50
34406;DHT22;20658;45.630;8.886;2023-05-19T09:59:04;16.50;94.90
34406;DHT22;20658;45.630;8.886;2023-05-19T10:01:40;16.50;94.10
34406;DHT22;20658;45.630;8.886;2023-05-19T10:04:17;16.50;91.30
34406;DHT22;20658;45.630;8.886;2023-05-19T10:06:51;16.40;90.10
34406;DHT22;20658;45.630;8.886;2023-05-19T10:09:26;16.50;91.80
34406;DHT22;20658;45.630;8.886;2023-05-19T10:12:01;16.50;90.70
34406;DHT22;20658;45.630;8.886;2023-05-19T10:14:30;16.50;88.10
34406;DHT22;20658;45.630;8.886;2023-05-19T10:17:07;16.60;87.50
34406;DHT22;20658;45.630;8.886;2023-05-19T10:19:42;16.70;87.00
34406;DHT22;20658;45.630;8.886;2023-05-19T10:22:17;16.60;85.80
34406;DHT22;20658;45.630;8.886;2023-05-19T10:24:51;16.60;86.10
34406;DHT22;20658;45.630;8.886;2023-05-19T10:27:22;16.50;84.70
34406;DHT22;20658;45.630;8.886;2023-05-19T10:29:57;16.60;86.60
34406;DHT22;20658;45.630;8.886;2023-05-19T10:32:37;16.50;85.40
34406;DHT22;20658;45.630;8.886;2023-05-19T10:38:20;16.50;85.10
34406;DHT22;20658;45.630;8.886;2023-05-19T10:41:11;16.70;86.50
34406;DHT22;20658;45.630;8.886;2023-05-19T10:43:55;16.60;86.00
34406;DHT22;20658;45.630;8.886;2023-05-19T10:46:36;16.70;85.70
34406;DHT22;20658;45.630;8.886;2023-05-19T10:49:19;16.60;85.70
34406;DHT22;20658;45.630;8.886;2023-05-19T10:51:54;16.70;86.50
34406;DHT22;20658;45.630;8.886;2023-05-19T10:54:41;16.70;85.00
34406;DHT22;20658;45.630;8.886;2023-05-19T10:57:19;16.70;86.00
34406;DHT22;20658;45.630;8.886;2023-05-19T10:59:58;16.70;87.30
34406;DHT22;20658;45.630;8.886;2023-05-19T11:02:36;16.60;85.80
34406;DHT22;20658;45.630;8.886;2023-05-19T11:05:14;16.50;88.20
34406;DHT22;20658;45.630;8.886;2023-05-19T11:07:55;16.50;88.30
34406;DHT22;20658;45.630;8.886;2023-05-19T11:10:33;16.50;89.50
34406;DHT22;20658;45.630;8.886;2023-05-19T11:13:06;16.30;88.00
34406;DHT22;20658;45.630;8.886;2023-05-19T11:15:41;16.40;89.00
34406;DHT22;20658;45.630;8.886;2023-05-19T11:18:18;16.40;89.40
34406;DHT22;20658;45.630;8.886;2023-05-19T11:20:59;16.50;90.50
34406;DHT22;20658;45.630;8.886;2023-05-19T11:23:37;16.50;91.90
34406;DHT22;20658;45.630;8.886;2023-05-19T11:26:12;16.80;92.10
34406;DHT22;20658;45.630;8.886;2023-05-19T11:28:40;17.00;90.70
34406;DHT22;20658;45.630;8.886;2023-05-19T11:31:10;17.10;88.40
34406;DHT22;20658;45.630;8.886;2023-05-19T11:33:43;17.20;88.80
34406;DHT22;20658;45.630;8.886;2023-05-19T11:36:18;17.20;88.80
34406;DHT22;20658;45.630;8.886;2023-05-19T11:38:52;17.20;87.70
34406;DHT22;20658;45.630;8.886;2023-05-19T11:41:26;17.30;88.30
34406;DHT22;20658;45.630;8.886;2023-05-19T11:44:01;17.30;87.90
34406;DHT22;20658;45.630;8.886;2023-05-19T11:46:35;17.00;88.90
34406;DHT22;20658;45.630;8.886;2023-05-19T11:49:04;17.10;89.10
34406;DHT22;20658;45.630;8.886;2023-05-19T11:51:34;17.20;88.30
34406;DHT22;20658;45.630;8.886;2023-05-19T11:54:09;17.20;89.00
34406;DHT22;20658;45.630;8.886;2023-05-19T11:56:43;17.20;89.50
34406;DHT22;20658;45.630;8.886;2023-05-19T11:59:16;17.20;90.20
34406;DHT22;20658;45.630;8.886;2023-05-19T12:01:50;17.30;90.00
34406;DHT22;20658;45.630;8.886;2023-05-19T12:04:23;17.30;90.30
34406;DHT22;20658;45.630;8.886;2023-05-19T12:06:58;17.40;90.00
34406;DHT22;20658;45.630;8.886;2023-05-19T12:09:32;17.30;89.20
34406;DHT22;20658;45.630;8.886;2023-05-19T12:12:06;17.30;89.60
34406;DHT22;20658;45.630;8.886;2023-05-19T12:14:40;17.40;89.80
34406;DHT22;20658;45.630;8.886;2023-05-19T12:17:12;17.50;91.20
34406;DHT22;20658;45.630;8.886;2023-05-19T12:19:46;17.60;89.70
34406;DHT22;20658;45.630;8.886;2023-05-19T12:22:22;17.60;90.00
34406;DHT22;20658;45.630;8.886;2023-05-19T12:24:56;17.50;88.10
34406;DHT22;20658;45.630;8.886;2023-05-19T12:27:25;17.40;89.00
34406;DHT22;20658;45.630;8.886;2023-05-19T12:29:59;17.30;89.50
34406;DHT22;20658;45.630;8.886;2023-05-19T12:32:33;17.30;90.30
34406;DHT22;20658;45.630;8.886;2023-05-19T12:35:08;17.20;90.50
34406;DHT22;20658;45.630;8.886;2023-05-19T12:37:43;17.00;91.40
34406;DHT22;20658;45.630;8.886;2023-05-19T12:40:20;16.90;92.70
34406;DHT22;20658;45.630;8.886;2023-05-19T12:42:55;16.90;91.40
34406;DHT22;20658;45.630;8.886;2023-05-19T12:45:33;16.80;91.00
34406;DHT22;20658;45.630;8.886;2023-05-19T12:48:10;16.60;91.00
34406;DHT22;20658;45.630;8.886;2023-05-19T12:50:46;16.50;91.10
34406;DHT22;20658;45.630;8.886;2023-05-19T12:53:21;16.50;91.80
34406;DHT22;20658;45.630;8.886;2023-05-19T12:55:58;16.50;92.50
34406;DHT22;20658;45.630;8.886;2023-05-19T12:58:32;16.60;92.90
34406;DHT22;20658;45.630;8.886;2023-05-19T13:01:06;16.70;94.10
34406;DHT22;20658;45.630;8.886;2023-05-19T13:03:40;16.60;91.90
34406;DHT22;20658;45.630;8.886;2023-05-19T13:06:13;16.60;91.80
34406;DHT22;20658;45.630;8.886;2023-05-19T13:08:45;16.60;92.60
34406;DHT22;20658;45.630;8.886;2023-05-19T13:11:19;16.60;93.70
34406;DHT22;20658;45.630;8.886;2023-05-19T13:13:52;16.50;94.30
34406;DHT22;20658;45.630;8.886;2023-05-19T13:16:26;16.50;94.40
34406;DHT22;20658;45.630;8.886;2023-05-19T13:19:00;16.40;93.60
34406;DHT22;20658;45.630;8.886;2023-05-19T13:21:34;16.40;94.40
34406;DHT22;20658;45.630;8.886;2023-05-19T13:24:08;16.30;95.70
34406;DHT22;20658;45.630;8.886;2023-05-19T13:26:42;16.20;94.30
34406;DHT22;20658;45.630;8.886;2023-05-19T13:29:15;16.30;95.30
34406;DHT22;20658;45.630;8.886;2023-05-19T13:31:49;16.20;95.20
34406;DHT22;20658;45.630;8.886;2023-05-19T13:34:22;16.20;95.10
34406;DHT22;20658;45.630;8.886;2023-05-19T13:36:56;16.30;95.60
34406;DHT22;20658;45.630;8.886;2023-05-19T13:39:31;16.20;94.90
34406;DHT22;20658;45.630;8.886;2023-05-19T13:42:05;16.20;96.00
34406;DHT22;20658;45.630;8.886;2023-05-19T13:44:38;16.20;94.70
34406;DHT22;20658;45.630;8.886;2023-05-19T13:47:12;16.40;94.50
34406;DHT22;20658;45.630;8.886;2023-05-19T13:49:45;16.40;94.80
34406;DHT22;20658;45.630;8.886;2023-05-19T13:52:19;16.50;94.50
34406;DHT22;20658;45.630;8.886;2023-05-19T13:54:54;16.60;94.10
34406;DHT22;20658;45.630;8.886;2023-05-19T13:57:28;16.60;94.40
34406;DHT22;20658;45.630;8.886;2023-05-19T14:00:02;16.80;94.70
34406;DHT22;20658;45.630;8.886;2023-05-19T14:02:39;16.70;94.50
34406;DHT22;20658;45.630;8.886;2023-05-19T14:05:13;16.50;95.60
34406;DHT22;20658;45.630;8.886;2023-05-19T14:07:46;16.40;96.60
34406;DHT22;20658;45.630;8.886;2023-05-19T14:10:21;16.40;97.20
34406;DHT22;20658;45.630;8.886;2023-05-19T14:12:55;16.40;97.60
34406;DHT22;20658;45.630;8.886;2023-05-19T14:15:31;16.50;98.10
34406;DHT22;20658;45.630;8.886;2023-05-19T14:18:08;16.40;97.70
34406;DHT22;20658;45.630;8.886;2023-05-19T14:20:41;16.40;97.80
34406;DHT22;20658;45.630;8.886;2023-05-19T14:23:15;16.40;98.10
34406;DHT22;20658;45.630;8.886;2023-05-19T14:25:52;16.20;97.30
34406;DHT22;20658;45.630;8.886;2023-05-19T14:28:20;16.10;97.70
34406;DHT22;20658;45.630;8.886;2023-05-19T14:30:53;16.10;97.60
34406;DHT22;20658;45.630;8.886;2023-05-19T14:33:27;16.00;98.00
34406;DHT22;20658;45.630;8.886;2023-05-19T14:36:00;16.00;98.10
34406;DHT22;20658;45.630;8.886;2023-05-19T14:38:34;16.00;97.80
34406;DHT22;20658;45.630;8.886;2023-05-19T14:41:09;16.00;98.60
34406;DHT22;20658;45.630;8.886;2023-05-19T14:43:42;15.90;98.40
34406;DHT22;20658;45.630;8.886;2023-05-19T14:46:15;15.90;99.10
34406;DHT22;20658;45.630;8.886;2023-05-19T14:48:49;15.90;98.50
34406;DHT22;20658;45.630;8.886;2023-05-19T14:51:22;15.90;98.60
34406;DHT22;20658;45.630;8.886;2023-05-19T14:53:56;15.80;99.90
34406;DHT22;20658;45.630;8.886;2023-05-19T14:56:30;15.70;99.90
34406;DHT22;20658;45.630;8.886;2023-05-19T14:59:04;15.60;99.90
34406;DHT22;20658;45.630;8.886;2023-05-19T15:01:37;15.60;99.90
34406;DHT22;20658;45.630;8.886;2023-05-19T15:04:11;15.60;99.90
34406;DHT22;20658;45.630;8.886;2023-05-19T15:06:44;15.60;99.90
34406;DHT22;20658;45.630;8.886;2023-05-19T15:09:17;15.60;99.90
34406;DHT22;20658;45.630;8.886;2023-05-19T15:11:53;15.50;99.90
34406;DHT22;20658;45.630;8.886;2023-05-19T15:14:26;15.30;99.90
34406;DHT22;20658;45.630;8.886;2023-05-19T15:16:59;15.20;99.90
34406;DHT22;20658;45.630;8.886;2023-05-19T15:19:33;15.20;99.90
34406;DHT22;20658;45.630;8.886;2023-05-19T15:22:06;15.30;99.90
34406;DHT22;20658;45.630;8.886;2023-05-19T15:24:40;15.30;99.90
34406;DHT22;20658;45.630;8.886;2023-05-19T15:27:17;15.20;99.90
34406;DHT22;20658;45.630;8.886;2023-05-19T15:29:51;15.10;99.90
34406;DHT22;20658;45.630;8.886;2023-05-19T15:32:25;15.10;99.90
34406;DHT22;20658;45.630;8.886;2023-05-19T15:34:58;15.00;99.90
34406;DHT22;20658;45.630;8.886;2023-05-19T15:37:32;14.90;99.90
34406;DHT22;20658;45.630;8.886;2023-05-19T15:40:06;14.90;99.90
34406;DHT22;20658;45.630;8.886;2023-05-19T15:42:42;14.90;99.90
34406;DHT22;20658;45.630;8.886;2023-05-19T15:45:15;15.00;99.90
34406;DHT22;20658;45.630;8.886;2023-05-19T15:47:49;15.00;99.90
34406;DHT22;20658;45.630;8.886;2023-05-19T15:50:22;15.00;99.90
34406;DHT22;20658;45.630;8.886;2023-05-19T15:52:57;15.00;99.90
34406;DHT22;20658;45.630;8.886;2023-05-19T15:55:30;15.00;99.90
34406;DHT22;20658;45.630;8.886;2023-05-19T15:58:05;15.00;99.90
34406;DHT22;20658;45.630;8.886;2023-05-19T16:00:39;14.90;99.90
34406;DHT22;20658;45.630;8.886;2023-05-19T16:03:13;14.80;99.90
34406;DHT22;20658;45.630;8.886;2023-05-19T16:05:46;14.80;99.90
34406;DHT22;20658;45.630;8.886;2023-05-19T16:08:19;14.90;99.90
34406;DHT22;20658;45.630;8.886;2023-05-19T16:10:53;14.90;99.90
34406;DHT22;20658;45.630;8.886;2023-05-19T16:13:28;14.90;99.90
34406;DHT22;20658;45.630;8.886;2023-05-19T16:16:05;14.80;99.90
34406;DHT22;20658;45.630;8.886;2023-05-19T16:18:42;14.90;99.90
34406;DHT22;20658;45.630;8.886;2023-05-19T16:21:15;14.90;99.90
34406;DHT22;20658;45.630;8.886;2023-05-19T16:23:49;14.80;99.90
34406;DHT22;20658;45.630;8.886;2023-05-19T16:26:21;14.80;99.90